Capt. John Reynolds — WDD6151 — position and weather

sailwx.info

Track history (hours):
 
Tides and Currents Weather Stations Pressure Air Temp Water Temp Dewpoint Dewpoint Depression Visibility Wind Speed Wind Dir Waves Ship Positions

Capt. John Reynolds

More information available from US FCC via Universal Licensing System and Coast Guard Vessel Documentation Center.

Last reported at 2014-Sep-28 02:32 UTC. Time now 2014-Oct-01 00:09 UTC.
Position N 29°57' W 090°18'.

Length 47 m; draft 3.3 m.

Type: Towing. MMSI: 367168950.

Date/timePositionNaut miles runAvg speedWind from/ knotsBaromVisibWave heightAir tempDewpointWater temp
2014-Sep-28 02:32N 29°57' W 090°18'4 0.9
2014-Sep-27 22:33N 29°56' W 090°23'5 5.1
2014-Sep-27 21:33N 29°60' W 090°27'5 4.6
2014-Sep-27 20:33N 30°03' W 090°31'6 5.6
2014-Sep-27 19:33N 30°02' W 090°37'5 4.9
2014-Sep-27 18:33N 30°01' W 090°43'5 3.8
2014-Sep-27 17:21N 30°00' W 090°48'3 3.7
2014-Sep-27 16:33N 30°01' W 090°45'6 4.3
2014-Sep-27 15:10N 30°03' W 090°38'2 3.8
2014-Sep-27 14:33N 30°03' W 090°35'5 2.2
2014-Sep-27 12:32N 30°03' W 090°30'0 0.0
2014-Sep-27 11:32N 30°03' W 090°30'0 0.0
2014-Sep-27 10:32N 30°03' W 090°30'0 0.0
2014-Sep-27 09:23N 30°03' W 090°30'0 0.1
2014-Sep-27 08:32N 30°03' W 090°30'1 1.0
2014-Sep-27 07:33N 30°03' W 090°29'0 0.1
2014-Sep-27 06:33N 30°03' W 090°29'0 0.0
2014-Sep-27 05:30N 30°03' W 090°29'0 0.0
2014-Sep-27 04:33N 30°03' W 090°29'0 0.4
2014-Sep-27 03:28N 30°03' W 090°29'0 0.5
2014-Sep-27 02:30N 30°03' W 090°29'0 0.0
2014-Sep-27 00:27N 30°03' W 090°29'2 2.0
2014-Sep-26 23:30N 30°03' W 090°31'0 0.0
2014-Sep-26 22:33N 30°03' W 090°31'0 0.0
2014-Sep-26 20:33N 30°03' W 090°31'15 1.8
2014-Sep-26 12:20N 30°00' W 090°48'  
2014-Sep-19 05:22N 29°60' W 090°50'0 0.0
2014-Sep-19 04:31N 29°60' W 090°50'0 0.4
2014-Sep-19 03:27N 29°59' W 090°50'12 4.1
2014-Sep-19 00:30N 30°03' W 090°36'4 1.6
2014-Sep-18 22:05N 30°03' W 090°31'0 0.1
2014-Sep-18 18:21N 30°03' W 090°31'  
Track history (hours):
 
Tides and Currents Weather Stations Pressure Air Temp Water Temp Dewpoint Dewpoint Depression Visibility Wind Speed Wind Dir Waves Ship Positions

Capt. John Reynolds

More information available from US FCC via Universal Licensing System and Coast Guard Vessel Documentation Center.

Last reported at 2014-Sep-28 02:32 UTC. Time now 2014-Oct-01 00:09 UTC.
Position N 29°57' W 090°18'.

Length 47 m; draft 3.3 m.

Type: Towing. MMSI: 367168950.

Date/timePositionNaut miles runAvg speedWind from/ knotsBaromVisibWave heightAir tempDewpointWater temp
2014-Sep-28 02:32N 29°57' W 090°18'4 0.9
2014-Sep-27 22:33N 29°56' W 090°23'5 5.1
2014-Sep-27 21:33N 29°60' W 090°27'5 4.6
2014-Sep-27 20:33N 30°03' W 090°31'6 5.6
2014-Sep-27 19:33N 30°02' W 090°37'5 4.9
2014-Sep-27 18:33N 30°01' W 090°43'5 3.8
2014-Sep-27 17:21N 30°00' W 090°48'3 3.7
2014-Sep-27 16:33N 30°01' W 090°45'6 4.3
2014-Sep-27 15:10N 30°03' W 090°38'2 3.8
2014-Sep-27 14:33N 30°03' W 090°35'5 2.2
2014-Sep-27 12:32N 30°03' W 090°30'0 0.0
2014-Sep-27 11:32N 30°03' W 090°30'0 0.0
2014-Sep-27 10:32N 30°03' W 090°30'0 0.0
2014-Sep-27 09:23N 30°03' W 090°30'0 0.1
2014-Sep-27 08:32N 30°03' W 090°30'1 1.0
2014-Sep-27 07:33N 30°03' W 090°29'0 0.1
2014-Sep-27 06:33N 30°03' W 090°29'0 0.0
2014-Sep-27 05:30N 30°03' W 090°29'0 0.0
2014-Sep-27 04:33N 30°03' W 090°29'0 0.4
2014-Sep-27 03:28N 30°03' W 090°29'0 0.5
2014-Sep-27 02:30N 30°03' W 090°29'0 0.0
2014-Sep-27 00:27N 30°03' W 090°29'2 2.0
2014-Sep-26 23:30N 30°03' W 090°31'0 0.0
2014-Sep-26 22:33N 30°03' W 090°31'0 0.0
2014-Sep-26 20:33N 30°03' W 090°31'15 1.8
2014-Sep-26 12:20N 30°00' W 090°48'  
2014-Sep-19 05:22N 29°60' W 090°50'0 0.0
2014-Sep-19 04:31N 29°60' W 090°50'0 0.4
2014-Sep-19 03:27N 29°59' W 090°50'12 4.1
2014-Sep-19 00:30N 30°03' W 090°36'4 1.6
2014-Sep-18 22:05N 30°03' W 090°31'0 0.1
2014-Sep-18 18:21N 30°03' W 090°31'  

Dump ship's entire track history